Wednesday, January 17, 2018, 9:46 AM EST
Back to Local

KIZG, Fryeburg Eastern Slopes Rgnl

Location: Fryeburg, ME, United States Lat: 43.983
Local Time: 9:46 AM EST (14:46 GMT) Lon: -70.95
Time Zone: US/Eastern Elev: 452 ft

Show me the last for .
Show Decoded

2018-01-17 09:23 METAR KIZG 171423Z AUTO 00000KT 2SM -SN BR OVC024 M05/M06 A3032 RMK AO2 P0001
                 T10501056 =
2018-01-17 08:54 METAR KIZG 171354Z AUTO 33003KT 1 1/4SM -SN BR BKN028 OVC037 M05/M06 A3032 RMK
                 AO2 SLP276 P0001 T10501056 =
2018-01-17 08:14 METAR KIZG 171314Z AUTO 00000KT 1SM -SN BR OVC026 M06/M06 A3033 RMK AO2 P0001
                 T10561056 =
2018-01-17 08:04 METAR KIZG 171304Z AUTO 00000KT 1 1/2SM -SN BR OVC026 M06/M06 A3033 RMK AO2
                 P0000 T10561056 =
2018-01-17 07:54 METAR KIZG 171254Z AUTO 00000KT 1 1/4SM -SN BR OVC026 M06/M06 A3034 RMK AO2
                 SLP281 P0001 T10561056 =
2018-01-17 07:37 METAR KIZG 171237Z AUTO 00000KT 1 1/4SM -SN BR OVC028 M06/M06 A3035 RMK AO2
                 P0001 T10561056 =
2018-01-17 07:34 METAR KIZG 171234Z AUTO 00000KT 1 3/4SM -SN BR BKN030 OVC060 M06/M06 A3034 RMK
                 AO2 P0001 T10561056 =
2018-01-17 07:08 METAR KIZG 171208Z AUTO 00000KT 3SM -SN BR SCT033 BKN047 OVC060 M06/M06 A3035
                 RMK AO2 P0000 T10561056 =
2018-01-17 06:54 METAR KIZG 171154Z AUTO 00000KT 2 1/2SM -SN BR BKN029 OVC047 M06/M06 A3036 RMK
                 AO2 SLP289 P0001 60005 7//// T10561056 11056 21061 53001 =
2018-01-17 05:54 METAR KIZG 171054Z AUTO 00000KT 1 3/4SM -SN BR OVC023 M06/M06 A3035 RMK AO2
                 SLP287 P0001 T10561056 =
2018-01-17 04:54 METAR KIZG 170954Z AUTO 00000KT 1 3/4SM -SN BR OVC024 M06/M06 A3036 RMK AO2
                 SLP287 P0001 T10561056 =
2018-01-17 04:35 METAR KIZG 170935Z AUTO 00000KT 2SM -SN BR OVC024 M06/M06 A3036 RMK AO2 P0001
                 T10561056 =
2018-01-17 04:26 METAR KIZG 170926Z AUTO 00000KT 1 3/4SM -SN BR OVC024 M06/M06 A3036 RMK AO2
                 P0001 T10561056 =
2018-01-17 04:12 METAR KIZG 170912Z AUTO 00000KT 2SM -SN BR OVC024 M06/M06 A3036 RMK AO2 P0000
                 T10561061 =
2018-01-17 03:54 METAR KIZG 170854Z AUTO 00000KT 1 3/4SM -SN BR OVC020 M06/M06 A3036 RMK AO2
                 SLP289 P0001 60002 T10561056 57007 =
2018-01-17 03:29 METAR KIZG 170829Z AUTO 00000KT 1 1/2SM -SN BR OVC022 M06/M06 A3036 RMK AO2
                 P0000 T10561056 =
2018-01-17 03:19 METAR KIZG 170819Z AUTO 00000KT 2SM -SN BR OVC026 M06/M06 A3036 RMK AO2 P0000
                 T10561056 =
2018-01-17 02:54 METAR KIZG 170754Z AUTO 00000KT 2 1/2SM -SN BR OVC036 M06/M06 A3037 RMK AO2
                 SLP293 P0001 T10561056 =
2018-01-17 02:21 METAR KIZG 170721Z AUTO 00000KT 3SM -SN BR OVC032 M06/M06 A3037 RMK AO2 P0001
                 T10561061 =
2018-01-17 01:54 METAR KIZG 170654Z AUTO 00000KT 2 1/2SM -SN BR OVC030 M06/M06 A3037 RMK AO2
                 SLP293 P0000 T10561061 =
2018-01-17 00:54 METAR KIZG 170554Z AUTO 00000KT 2 1/2SM -SN BR OVC031 M06/M06 A3038 RMK AO2
                 SLP297 P0001 60001 T10561061 11056 21072 58013 =
2018-01-17 00:43 METAR KIZG 170543Z AUTO 00000KT 2 1/2SM -SN BR OVC031 M06/M06 A3038 RMK AO2
                 P0000 T10611061 =
2018-01-17 00:21 METAR KIZG 170521Z AUTO 00000KT 2SM -SN BR OVC029 M06/M06 A3039 RMK AO2 P0000
                 T10611061 =
2018-01-16 23:54 METAR KIZG 170454Z AUTO 00000KT 2 1/2SM -SN BR OVC033 M06/M06 A3040 RMK AO2
                 SLP303 P0000 T10611061 410221100 =
2018-01-16 23:42 METAR KIZG 170442Z AUTO 00000KT 2 1/2SM -SN BR OVC033 M06/M06 A3040 RMK AO2
                 P0000 T10611061 =
2018-01-16 22:54 METAR KIZG 170354Z AUTO 30003KT 4SM -SN BR OVC042 M06/M07 A3041 RMK AO2 SLP306
                 P0000 T10611067 =
2018-01-16 21:54 METAR KIZG 170254Z AUTO 00000KT 3SM -SN BR OVC044 M06/M07 A3042 RMK AO2 SNB20
                 SLP311 P0000 60000 T10611067 53001 =
2018-01-16 20:54 METAR KIZG 170154Z AUTO 29004KT 10SM SCT060 BKN070 BKN110 M07/M07 A3042 RMK AO2
                 SLP311 T10671072 =
2018-01-16 19:54 METAR KIZG 170054Z AUTO 00000KT 10SM BKN090 OVC110 M07/M08 A3042 RMK AO2 SLP310
                 T10721078 =
2018-01-16 18:54 METAR KIZG 162354Z AUTO 22004KT 10SM FEW100 FEW110 M07/M07 A3042 RMK AO2 SLP311
                 T10671072 11022 21067 50003 =
2018-01-16 17:54 METAR KIZG 162254Z AUTO 00000KT 10SM BKN110 M04/M07 A3042 RMK AO2 SLP312
                 T10441072 =
2018-01-16 16:54 METAR KIZG 162154Z AUTO 00000KT 10SM BKN055 OVC070 M03/M07 A3042 RMK AO2 SLP309
                 T10331072 =
2018-01-16 15:54 METAR KIZG 162054Z AUTO 20003KT 10SM FEW070 SCT090 M03/M08 A3041 RMK AO2 SLP306
                 T10281078 55001 =
2018-01-16 14:54 METAR KIZG 161954Z AUTO 17004KT 10SM CLR M02/M08 A3041 RMK AO2 SLP304 T10221078
                 =
2018-01-16 13:54 METAR KIZG 161854Z AUTO 17006KT 10SM FEW026 M03/M08 A3040 RMK AO2 SLP302
                 T10281078 =
2018-01-16 13:43 METAR KIZG 161843Z AUTO 19005KT 10SM SCT026 M03/M08 A3040 RMK AO2 T10331083 =
2018-01-16 12:54 METAR KIZG 161754Z AUTO 22005KT 10SM OVC025 M04/M09 A3041 RMK AO2 SLP308 6////
                 T10391089 11039 21100 58025 =
2018-01-16 11:54 METAR KIZG 161654Z AUTO 00000KT 10SM OVC026 M05/M11 A3044 RMK AO2 SLP318
                 T10501111 PNO $ =
2018-01-16 10:54 METAR KIZG 161554Z AUTO 00000KT 10SM BKN029 OVC038 M06/M12 A3048 RMK AO2 SLP330
                 T10561117 =
2018-01-16 10:02 METAR KIZG 161502Z AUTO 00000KT 10SM OVC029 M07/M13 A3049 RMK AO2 T10721128 =
2018-01-16 09:54 METAR KIZG 161454Z AUTO 12003KT 10SM OVC031 M08/M12 A3049 RMK AO2 SLP334
                 T10781122 58004 =

Support USWX by starting your Amazon purchase here.